Flight Track Log - Related Links

Times and Time Zones

All times are in EDT time to prevent confusion due to time zone crossing. See the SWA608 flight status page for this flight to view local times or setup timezone preferences in your user account.

Time Position Orientation Groundspeed Altitude Reporting Facility
EDT Latitude Longitude Course Direction KTS MPH feet Rate Location/Type
Sat 06:37:30 AM 28.4167 -81.3000 156° South 171 197 500  Level Orlando TRACON
Sat 06:38:42 AM 28.3500 -81.2667 156° South 212 244 2,900 2,455 Climbing Orlando TRACON
Sat 06:39:42 AM 28.3333 -81.2167 111° Southeast 246 283 5,900 2,713 Climbing Orlando TRACON
Sat 06:41:50 AM 28.5036 -81.1775 11° North 311 358 11,400 2,872 Climbing Jacksonville Center
Sat 06:42:50 AM 28.5958 -81.2044 346° North 311 358 14,900 3,200 Climbing Jacksonville Center
Sat 06:43:50 AM 28.6881 -81.2431 340° North 336 387 17,800 2,600 Climbing Jacksonville Center
Sat 06:44:50 AM 28.7889 -81.2769 344° North 354 407 20,100 2,150 Climbing Jacksonville Center
Sat 06:45:50 AM 28.8914 -81.3131 343° North 372 428 22,100 2,200 Climbing Jacksonville Center
Sat 06:46:50 AM 29.0039 -81.2806 14° North 402 463 24,500 2,150 Climbing Jacksonville Center
Sat 06:47:50 AM 29.1203 -81.2383 18° North 423 487 26,400 2,000 Climbing Jacksonville Center
Sat 06:48:50 AM 29.2364 -81.1886 20° North 438 504 28,500 1,650 Climbing Jacksonville Center
Sat 06:49:50 AM 29.3381 -81.1489 19° North 438 504 29,700 1,250 Climbing Jacksonville Center
Sat 06:50:50 AM 29.4628 -81.0989 19° North 449 517 31,000 1,550 Climbing Jacksonville Center
Sat 06:51:50 AM 29.5808 -81.0489 20° North 449 517 32,800 1,700 Climbing Jacksonville Center
Sat 06:52:50 AM 29.7056 -80.9989 19° North 454 522 34,400 1,650 Climbing Jacksonville Center
Sat 06:53:50 AM 29.8300 -80.9461 20° North 461 531 36,100 1,550 Climbing Jacksonville Center
Sat 06:54:50 AM 29.9461 -80.8983 20° North 456 525 37,500 1,350 Climbing Jacksonville Center
Sat 06:55:50 AM 30.0622 -80.8503 20° North 450 518 38,800 750 Climbing Jacksonville Center
Sat 06:56:50 AM 30.1806 -80.8019 19° North 444 511 39,000 100 Climbing Jacksonville Center
Sat 06:57:50 AM 30.2986 -80.7514 20° North 444 511 39,000  Level Jacksonville Center
Sat 06:58:50 AM 30.4169 -80.7031 19° North 444 511 39,000  Level Jacksonville Center
Sat 06:59:50 AM 30.5350 -80.6519 20° North 444 511 39,000  Level Jacksonville Center
Sat 07:00:50 AM 30.6572 -80.6056 18° North 444 511 39,000  Level Jacksonville Center
Sat 07:01:50 AM 30.7897 -80.5469 21° North 450 518 39,000  Level Jacksonville Center
Sat 07:02:50 AM 30.9058 -80.4981 20° North 450 518 39,000  Level Jacksonville Center
Sat 07:03:50 AM 31.0258 -80.4464 20° North 450 518 39,000  Level Jacksonville Center
Sat 07:04:50 AM 31.1442 -80.3997 19° North 450 518 39,000  Level Jacksonville Center
Sat 07:05:50 AM 31.2664 -80.3503 19° North 450 518 39,000 -50 Level Jacksonville Center
Sat 07:06:50 AM 31.3842 -80.2983 21° North 443 510 38,900 -50 Descending Jacksonville Center
Sat 07:07:50 AM 31.5022 -80.2439 21° North 448 516 38,900  Level Jacksonville Center
Sat 07:08:50 AM 31.6242 -80.1917 20° North 448 516 38,900  Level Jacksonville Center
Sat 07:09:50 AM 31.7442 -80.1394 20° North 448 516 38,900  Level Jacksonville Center
Sat 07:10:50 AM 31.8619 -80.0894 20° North 448 516 38,900  Level Jacksonville Center
Sat 07:11:50 AM 31.9819 -80.0392 20° North 448 516 38,900  Level Jacksonville Center
Sat 07:12:50 AM 32.1039 -79.9864 20° North 448 516 38,900  Level Jacksonville Center
Sat 07:13:00 AM 32.0971 -79.9908 20° North  Level FlightAware Approximate
Sat 07:13:50 AM 32.2258 -79.9308 21° North 454 522 38,900  Level Jacksonville Center
Sat 07:14:50 AM 32.3519 -79.8778 20° North 466 536 38,900  Level Jacksonville Center
Sat 07:15:50 AM 32.4758 -79.8194 22° Northeast 466 536 38,900  Level Jacksonville Center
Sat 07:16:50 AM 32.6017 -79.7658 20° North 466 536 38,900  Level Jacksonville Center
Sat 07:17:50 AM 32.7278 -79.7097 21° North 466 536 38,900  Level Jacksonville Center
Sat 07:18:50 AM 32.8475 -79.6558 21° North 466 536 38,900  Level Jacksonville Center
Sat 07:19:50 AM 32.9692 -79.6019 20° North 459 528 38,900 -950 Level Jacksonville Center
Sat 07:20:50 AM 33.0889 -79.5506 20° North 459 528 37,000 -1,000 Descending Jacksonville Center
Sat 07:21:50 AM 33.2106 -79.4964 20° North 459 528 36,900 -50 Descending Jacksonville Center
Sat 07:22:50 AM 33.3383 -79.4392 21° North 469 540 36,900  Level Jacksonville Center
Sat 07:23:50 AM 33.4642 -79.3819 21° North 469 540 36,900  Level Jacksonville Center
Sat 07:24:50 AM 33.5919 -79.3247 20° North 475 547 36,900  Level Jacksonville Center
Sat 07:25:50 AM 33.7197 -79.2694 20° North 485 558 36,900  Level Jacksonville Center
Sat 07:26:50 AM 33.8456 -79.2169 19° North 479 551 36,900  Level Jacksonville Center
Sat 07:27:50 AM 33.9750 -79.1564 21° North 484 557 36,900  Level Jacksonville Center
Sat 07:29:36 AM 34.1864 -79.0589 21° North 499 574 36,900  Level Washington Center
Sat 07:30:34 AM 34.3175 -78.9939 22° Northeast 499 574 36,900  Level Washington Center
Sat 07:31:36 AM 34.4347 -78.9031 33° Northeast 494 568 36,900 50 Level Washington Center
Sat 07:32:34 AM 34.5544 -78.8047 34° Northeast 505 581 37,000 51 Climbing Washington Center
Sat 07:33:34 AM 34.6814 -78.7364 24° Northeast 505 581 37,000  Level Washington Center
Sat 07:34:35 AM 34.8122 -78.6758 21° North 499 574 37,000  Level Washington Center
Sat 07:35:36 AM 34.9389 -78.6147 22° Northeast 493 567 37,000  Level Washington Center
Sat 07:36:36 AM 35.0678 -78.5508 22° Northeast 493 567 37,000  Level Washington Center
Sat 07:37:36 AM 35.1947 -78.4869 22° Northeast 493 567 37,000  Level Washington Center
Sat 07:38:36 AM 35.3361 -78.4156 22° Northeast 499 574 37,000  Level Washington Center
Sat 07:39:34 AM 35.4714 -78.3464 23° Northeast 499 574 37,000  Level Washington Center
Sat 07:40:34 AM 35.6019 -78.2872 20° North 499 574 37,000  Level Washington Center
Sat 07:41:35 AM 35.7308 -78.2250 21° North 499 574 37,000  Level Washington Center
Sat 07:42:36 AM 35.8614 -78.1600 22° Northeast 499 574 37,000  Level Washington Center
Sat 07:43:34 AM 35.9900 -78.0950 22° Northeast 499 574 37,000 -101 Level Washington Center
Sat 07:44:35 AM 36.1208 -78.0297 22° Northeast 499 574 36,800 -1,672 Descending Washington Center
Sat 07:45:36 AM 36.2494 -77.9642 22° Northeast 499 574 33,600 -3,273 Descending Washington Center
Sat 07:46:36 AM 36.3800 -77.9011 21° North 499 574 30,200 -2,339 Descending Washington Center
Sat 07:47:34 AM 36.4958 -77.8397 23° Northeast 499 574 29,000 -610 Descending Washington Center
Sat 07:48:34 AM 36.6222 -77.7761 22° Northeast 499 574 29,000  Level Washington Center
Sat 07:49:36 AM 36.7508 -77.7125 22° Northeast 499 574 29,000  Level Washington Center
Sat 07:50:36 AM 36.8792 -77.6458 23° Northeast 499 574 29,000  Level Washington Center
Sat 07:51:33 AM 37.0203 -77.5714 23° Northeast 499 574 29,000  Level Washington Center
Sat 07:52:34 AM 37.1483 -77.5069 22° Northeast 499 574 29,000 -400 Level Washington Center
Sat 07:53:33 AM 37.2600 -77.4497 22° Northeast 499 574 28,200 -1,700 Descending Washington Center
Sat 07:54:34 AM 37.3861 -77.3822 23° Northeast 489 563 25,600 -2,529 Descending Washington Center
Sat 07:55:34 AM 37.5058 -77.3222 22° Northeast 476 548 23,100 -1,289 Descending Washington Center
Sat 07:56:35 AM 37.6314 -77.2911 11° North 459 528 23,000 -50 Descending Washington Center
Sat 07:57:34 AM 37.7633 -77.2650 North 459 528 23,000  Level Washington Center
Sat 07:58:35 AM 37.8928 -77.2389 North 470 541 23,000 -98 Level Washington Center
Sat 07:59:36 AM 38.0350 -77.2131 North 470 541 22,800 -1,513 Descending Washington Center
Sat 08:00:34 AM 38.1625 -77.1869 North 465 535 20,000 -2,622 Descending Washington Center
Sat 08:01:35 AM 38.2756 -77.1600 11° North 465 535 17,600 -2,459 Descending Washington Center
Sat 08:02:36 AM 38.3992 -77.1125 17° North 436 502 15,000 -2,521 Descending Washington Center
Sat 08:03:34 AM 38.4858 -77.0133 42° Northeast 407 468 12,600 -1,590 Descending Washington Center
Sat 08:04:33 AM 38.5619 -76.9192 44° Northeast 397 457 11,900 -1,150 Descending Washington Center
Sat 08:05:34 AM 38.6317 -76.8356 43° Northeast 366 421 10,300 -1,377 Descending Washington Center
Sat 08:06:35 AM 38.6992 -76.7514 44° Northeast 345 397 9,100 -1,250 Descending Washington Center
Sat 08:07:34 AM 38.7439 -76.6536 60° Northeast 334 384 7,800 -1,350 Descending Washington Center
Sat 08:08:35 AM 38.7886 -76.5531 60° Northeast 321 369 6,400 -1,333 Descending Washington Center
Sat 08:09:40 AM 38.8667 -76.5333 11° North 279 321 5,000 -1,434 Descending Potomac TRACON
Sat 08:10:28 AM 38.9333 -76.5500 349° North 282 325 3,700 -1,389 Descending Potomac TRACON
Sat 08:11:28 AM 39.0167 -76.5667 351° North 269 310 2,500 -893 Descending Potomac TRACON
Sat 08:12:29 AM 39.0833 -76.5833 349° North 232 267 1,900 -574 Descending Potomac TRACON
Sat 08:13:23 AM 39.1167 -76.6167 322° Northwest 159 183 1,400 -684 Descending Potomac TRACON
Sat 08:14:23 AM 39.1500 -76.6500 322° Northwest 145 167 600 -800 Descending Potomac TRACON
Sat 08:16:00 AM 39.1667 -76.6667 339° North  Level FlightAware Approximate
Sat 08:23:00 AM 39.1754 -76.6683 339° North  Level Estimated
Sat 08:24:00 AM 39.1754 -76.6683 339° North  Level Estimated
Sat 08:25:00 AM 39.1754 -76.6683 339° North  Level Estimated

Login

Don't have an account? Register now (free) for customized features, flight alerts, and more!